Callao, Virginia
Current Conditions -  °F | °C
As of 12:53 PM on Sunday 21 Dec 2014 (Local Time) from KNUI Reporting Station
Broken Clouds Broken Clouds  
Wind Chill: 38°   Ceiling: 6500
Heat Index: 41°   Visibility: 10mi
Dew Point: 26°   Wind: 5mph
Humidity: 55%   Direction: 200°SSW
Pressure: 30.32"   Gusts: NA
Location:  37.97°N, 76.56°W
Report Text: KNUI 211753Z AUTO 20004KT 10SM BKN065 05/M03 A3032 RMK AO2 SLP265 T00501033 10067 20017 58013
Loading
Personal Weather Stations






























Interactive Weather Map New forecast layout! Learn more

10-Day Weather Forecast

Advertisements
Track Severe Weather on mobile